Time;durP1;ratioP1;P1;durP2;ratioP2;P2;SDS_P1;SDS_P2;PMS_P1;PMS_P2;Temp;Humidity;BMP_temperature;BMP_pressure;BME280_temperature;BME280_humidity;BME280_pressure;Samples;Min_cycle;Max_cycle;Signal;HPM_P1;HPM_P2
2022/09/16 00:00:35;;;;;;;7.60;0.50;;;11.10;99.90;;;;;;5004156;28;20058;-68
2022/09/16 00:03:02;;;;;;;5.93;0.65;;;11.10;99.90;;;;;;5006044;28;20436;-69
2022/09/16 00:05:28;;;;;;;8.02;1.05;;;11.10;99.90;;;;;;5002366;28;20030;-69
2022/09/16 00:07:54;;;;;;;4.30;0.55;;;11.10;99.90;;;;;;5008545;28;20353;-68
2022/09/16 00:10:21;;;;;;;2.42;0.35;;;11.20;99.90;;;;;;5000459;28;20608;-68
2022/09/16 00:12:48;;;;;;;4.63;0.40;;;11.20;99.90;;;;;;5001493;28;20109;-68
2022/09/16 00:15:13;;;;;;;7.35;1.30;;;11.30;99.90;;;;;;5007773;28;20051;-68
2022/09/16 00:17:39;;;;;;;3.42;0.50;;;11.30;99.90;;;;;;4999067;28;20065;-68
2022/09/16 00:20:06;;;;;;;6.63;0.50;;;11.20;99.90;;;;;;5001819;28;20442;-68
2022/09/16 00:22:32;;;;;;;3.50;0.40;;;11.30;99.90;;;;;;5000408;28;20540;-68
2022/09/16 00:24:58;;;;;;;6.05;0.68;;;11.30;99.90;;;;;;5005202;28;20046;-68
2022/09/16 00:27:23;;;;;;;6.53;0.50;;;11.30;99.90;;;;;;5002791;28;20449;-70
2022/09/16 00:29:49;;;;;;;4.15;0.40;;;11.30;99.90;;;;;;5008272;28;20062;-70
2022/09/16 00:32:15;;;;;;;5.57;0.80;;;11.40;99.90;;;;;;5002052;28;20081;-70
2022/09/16 00:34:41;;;;;;;6.22;0.40;;;11.40;99.90;;;;;;5003570;28;20034;-69
2022/09/16 00:37:07;;;;;;;3.22;0.40;;;11.40;99.90;;;;;;4999227;28;20104;-69
2022/09/16 00:39:34;;;;;;;5.05;0.60;;;11.40;99.90;;;;;;5005418;28;20034;-69
2022/09/16 00:42:00;;;;;;;7.68;0.75;;;11.50;99.90;;;;;;5001968;28;20044;-69
2022/09/16 00:44:51;;;;;;;7.78;0.60;;;11.40;99.90;;;;;;5004777;28;20050;-69
2022/09/16 00:47:34;;;;;;;7.68;0.80;;;11.50;99.90;;;;;;5003526;28;20081;-70
2022/09/16 00:50:36;;;;;;;5.57;0.60;;;11.40;99.90;;;;;;4993227;28;20081;-70
2022/09/16 00:53:04;;;;;;;4.97;0.47;;;11.50;99.90;;;;;;4983274;28;20108;-70
2022/09/16 00:55:34;;;;;;;4.07;0.68;;;11.50;99.90;;;;;;5002445;28;20398;-70
2022/09/16 00:58:41;;;;;;;5.68;0.50;;;11.50;99.90;;;;;;4991389;28;20450;-70
2022/09/16 01:01:07;;;;;;;4.22;0.65;;;11.50;99.90;;;;;;5000567;28;20327;-70
2022/09/16 01:03:48;;;;;;;6.32;0.60;;;11.50;99.90;;;;;;5002690;28;20046;-69
2022/09/16 01:06:15;;;;;;;4.18;0.50;;;11.50;99.90;;;;;;4980865;28;20038;-70
2022/09/16 01:08:42;;;;;;;4.10;0.47;;;11.50;99.90;;;;;;5001172;28;20037;-70
2022/09/16 01:11:08;;;;;;;6.80;0.70;;;11.50;99.90;;;;;;5005930;28;20042;-70
2022/09/16 01:13:34;;;;;;;6.80;0.85;;;11.60;99.90;;;;;;5000282;28;20046;-70
2022/09/16 01:16:18;;;;;;;6.10;0.63;;;11.60;99.90;;;;;;4983050;28;20046;-69
2022/09/16 01:19:07;;;;;;;4.93;0.40;;;11.60;99.90;;;;;;4983657;28;20391;-70
2022/09/16 01:21:58;;;;;;;3.75;0.40;;;11.60;99.90;;;;;;5004904;28;20509;-70
2022/09/16 01:24:53;;;;;;;7.65;0.90;;;11.60;99.90;;;;;;4992778;28;20050;-70
2022/09/16 01:27:57;;;;;;;10.48;0.80;;;11.60;99.90;;;;;;5005291;28;20042;-70
2022/09/16 01:30:54;;;;;;;5.72;0.80;;;11.50;99.90;;;;;;4998213;28;20545;-70
2022/09/16 01:33:22;;;;;;;6.53;0.68;;;11.40;99.90;;;;;;5003802;28;20084;-70
2022/09/16 01:36:09;;;;;;;2.92;0.25;;;11.40;99.90;;;;;;5005607;28;20034;-70
2022/09/16 01:38:44;;;;;;;5.25;0.57;;;11.40;99.90;;;;;;5002241;28;20049;-70
2022/09/16 01:41:23;;;;;;;3.50;0.73;;;11.40;99.90;;;;;;5007180;28;20112;-70
2022/09/16 01:44:15;;;;;;;4.40;0.70;;;11.40;99.90;;;;;;5001536;28;20060;-70
2022/09/16 01:47:07;;;;;;;3.92;0.60;;;11.40;99.90;;;;;;4995817;28;20465;-70
2022/09/16 01:49:54;;;;;;;4.22;0.45;;;11.40;99.90;;;;;;4980753;28;20107;-70
2022/09/16 01:52:35;;;;;;;6.43;0.65;;;11.40;99.90;;;;;;5001584;28;20042;-70
2022/09/16 01:55:07;;;;;;;6.47;0.43;;;11.40;99.90;;;;;;5002431;28;20402;-70
2022/09/16 01:57:41;;;;;;;4.13;0.40;;;11.40;99.90;;;;;;5001968;28;20038;-70
2022/09/16 02:00:10;;;;;;;2.40;0.50;;;11.40;99.90;;;;;;4987987;28;20074;-70
2022/09/16 02:02:46;;;;;;;5.38;0.52;;;11.40;99.90;;;;;;5007214;28;20038;-70
2022/09/16 02:05:23;;;;;;;4.32;0.63;;;11.40;99.90;;;;;;5006370;28;20405;-70
2022/09/16 02:07:53;;;;;;;5.53;0.65;;;11.40;99.90;;;;;;5012003;28;20052;-70
2022/09/16 02:10:26;;;;;;;5.53;0.65;;;11.40;99.90;;;;;;4998708;28;20042;-70
2022/09/16 02:12:57;;;;;;;6.32;0.50;;;11.40;99.90;;;;;;5011306;28;20050;-70
2022/09/16 02:15:25;;;;;;;5.60;0.63;;;11.40;99.90;;;;;;5001106;28;20255;-70
2022/09/16 02:18:03;;;;;;;7.85;0.85;;;11.40;99.90;;;;;;5003309;28;20049;-70
2022/09/16 02:20:31;;;;;;;5.45;0.80;;;11.40;99.90;;;;;;5003772;28;20387;-70
2022/09/16 02:23:05;;;;;;;4.35;0.43;;;11.40;99.90;;;;;;5009076;28;20088;-70
2022/09/16 02:25:37;;;;;;;7.68;0.68;;;11.30;99.90;;;;;;5007517;28;20508;-70
2022/09/16 02:28:11;;;;;;;3.70;0.55;;;11.30;99.90;;;;;;5004667;28;20049;-70
2022/09/16 02:30:41;;;;;;;6.38;0.60;;;11.20;99.90;;;;;;5002121;28;20072;-70
2022/09/16 02:33:10;;;;;;;5.13;0.75;;;11.20;99.90;;;;;;5001865;28;20058;-70
2022/09/16 02:35:38;;;;;;;1.50;0.30;;;11.10;99.90;;;;;;4998789;28;20125;-70
2022/09/16 02:38:19;;;;;;;4.72;0.40;;;11.00;99.90;;;;;;5000128;28;20046;-70
2022/09/16 02:40:57;;;;;;;4.68;0.50;;;10.90;99.90;;;;;;5001234;28;20035;-70
2022/09/16 02:43:23;;;;;;;5.72;0.55;;;10.90;99.90;;;;;;5008223;28;20491;-70
2022/09/16 02:46:08;;;;;;;4.20;0.40;;;10.80;99.90;;;;;;5004335;28;20045;-70
2022/09/16 02:49:04;;;;;;;4.78;0.63;;;10.70;99.90;;;;;;5005719;28;20054;-70
2022/09/16 02:51:35;;;;;;;1.95;0.52;;;10.60;99.90;;;;;;5001502;28;20050;-70
2022/09/16 02:54:06;;;;;;;6.15;0.50;;;10.50;99.90;;;;;;5005419;28;20054;-70
2022/09/16 02:56:36;;;;;;;7.25;0.50;;;10.50;99.90;;;;;;5005446;28;20116;-70
2022/09/16 02:59:04;;;;;;;6.57;0.60;;;10.50;99.90;;;;;;5005144;28;20048;-70
2022/09/16 03:01:41;;;;;;;6.40;0.73;;;10.50;99.90;;;;;;4998317;28;20045;-70
2022/09/16 03:04:13;;;;;;;4.28;0.70;;;10.50;99.90;;;;;;5003370;28;20046;-70
2022/09/16 03:06:39;;;;;;;3.42;0.40;;;10.60;99.90;;;;;;5002134;28;20076;-70
2022/09/16 03:09:11;;;;;;;6.32;0.88;;;10.60;99.90;;;;;;5007174;28;20509;-70
2022/09/16 03:12:07;;;;;;;6.07;0.77;;;10.60;99.90;;;;;;5001887;28;20367;-70
2022/09/16 03:15:01;;;;;;;5.28;0.57;;;10.70;99.90;;;;;;5017990;28;20176;-70
2022/09/16 03:18:01;;;;;;;5.50;0.85;;;10.70;99.90;;;;;;4999926;28;20035;-70
2022/09/16 03:20:39;;;;;;;4.35;0.40;;;10.80;99.90;;;;;;4999121;28;20104;-70
2022/09/16 03:23:20;;;;;;;3.65;0.40;;;10.80;99.90;;;;;;5008182;28;20050;-70
2022/09/16 03:26:24;;;;;;;6.68;0.82;;;10.80;99.90;;;;;;5002062;28;20054;-70
2022/09/16 03:29:01;;;;;;;1.92;0.65;;;10.90;99.90;;;;;;5004414;28;20046;-70
2022/09/16 03:31:33;;;;;;;5.47;0.60;;;10.90;99.90;;;;;;5002155;28;20097;-70
2022/09/16 03:34:05;;;;;;;8.48;0.75;;;10.90;99.90;;;;;;4988695;28;20582;-70
2022/09/16 03:36:39;;;;;;;6.25;0.70;;;10.90;99.90;;;;;;5001472;28;20054;-70
2022/09/16 03:39:06;;;;;;;4.78;0.80;;;10.90;99.90;;;;;;5004337;28;20042;-70
2022/09/16 03:41:34;;;;;;;3.65;0.60;;;10.90;99.90;;;;;;5000610;28;20069;-70
2022/09/16 03:44:00;;;;;;;5.25;0.88;;;10.90;99.90;;;;;;5004998;28;20030;-71
2022/09/16 03:46:27;;;;;;;4.18;0.55;;;10.80;99.90;;;;;;5004489;28;20035;-69
2022/09/16 03:48:54;;;;;;;8.20;0.90;;;10.80;99.90;;;;;;5002445;28;20045;-69
2022/09/16 03:51:20;;;;;;;4.97;0.60;;;10.80;99.90;;;;;;5005812;28;20045;-69
2022/09/16 03:53:45;;;;;;;8.35;0.55;;;10.80;99.90;;;;;;4999564;28;20034;-70
2022/09/16 03:56:11;;;;;;;3.65;0.57;;;10.80;99.90;;;;;;5009779;28;20183;-70
2022/09/16 03:58:37;;;;;;;7.00;0.90;;;10.80;99.90;;;;;;5005773;28;20034;-70
2022/09/16 04:01:02;;;;;;;7.20;0.60;;;10.80;99.90;;;;;;5010452;28;20033;-71
2022/09/16 04:03:28;;;;;;;5.60;0.80;;;10.90;99.90;;;;;;5004390;28;20038;-70
2022/09/16 04:05:55;;;;;;;5.85;0.52;;;10.90;99.90;;;;;;5006137;28;20124;-70
2022/09/16 04:08:21;;;;;;;6.28;0.45;;;10.90;99.90;;;;;;5003336;28;20467;-70
2022/09/16 04:10:58;;;;;;;5.07;0.85;;;10.80;99.90;;;;;;5008013;28;20085;-70
2022/09/16 04:13:24;;;;;;;5.75;0.60;;;10.80;99.90;;;;;;5007836;28;20077;-70
2022/09/16 04:15:50;;;;;;;4.13;0.55;;;10.70;99.90;;;;;;5006539;28;20050;-70
2022/09/16 04:18:17;;;;;;;4.65;0.50;;;10.60;99.90;;;;;;5002937;28;20045;-70
2022/09/16 04:20:43;;;;;;;4.25;0.57;;;10.60;99.90;;;;;;5015864;28;20045;-71
2022/09/16 04:23:09;;;;;;;4.72;0.40;;;10.50;99.90;;;;;;5000967;28;20513;-69
2022/09/16 04:25:35;;;;;;;4.93;0.40;;;10.50;99.90;;;;;;4991779;28;20369;-69
2022/09/16 04:28:01;;;;;;;4.53;0.60;;;10.50;99.90;;;;;;5004919;28;20129;-69
2022/09/16 04:30:27;;;;;;;4.93;0.75;;;10.30;99.90;;;;;;5005088;28;20367;-70
2022/09/16 04:32:54;;;;;;;7.80;0.55;;;10.40;99.90;;;;;;5005273;28;20046;-69
2022/09/16 04:35:20;;;;;;;7.35;0.65;;;10.40;99.90;;;;;;5003705;28;20057;-69
2022/09/16 04:37:46;;;;;;;6.55;0.55;;;10.30;99.90;;;;;;5000788;28;20042;-69
2022/09/16 04:40:12;;;;;;;7.68;0.50;;;10.40;99.90;;;;;;5004317;28;20089;-69
2022/09/16 04:42:37;;;;;;;4.55;0.50;;;10.40;99.90;;;;;;4989722;28;20046;-69
2022/09/16 04:45:04;;;;;;;3.67;0.30;;;10.40;99.90;;;;;;5005735;28;20407;-69
2022/09/16 04:47:29;;;;;;;5.95;0.60;;;10.40;99.90;;;;;;5006014;28;20097;-70
2022/09/16 04:49:55;;;;;;;7.65;1.48;;;10.40;99.90;;;;;;4990036;28;20049;-70
2022/09/16 04:52:21;;;;;;;4.75;0.70;;;10.30;99.90;;;;;;5009008;28;20049;-70
2022/09/16 04:54:46;;;;;;;4.53;0.50;;;10.20;99.90;;;;;;5012691;28;20501;-70
2022/09/16 04:57:12;;;;;;;7.10;0.70;;;10.20;99.90;;;;;;5013356;28;20046;-70
2022/09/16 04:59:38;;;;;;;5.82;0.60;;;10.30;99.90;;;;;;5007478;28;20042;-71
2022/09/16 05:02:03;;;;;;;5.43;0.55;;;10.30;99.90;;;;;;5013346;28;20050;-71
2022/09/16 05:04:29;;;;;;;5.00;0.40;;;10.30;99.90;;;;;;5008620;28;20052;-70
2022/09/16 05:06:55;;;;;;;4.10;0.40;;;10.20;99.90;;;;;;5008715;28;20113;-70
2022/09/16 05:09:21;;;;;;;3.15;0.68;;;10.20;99.90;;;;;;5004798;28;20046;-70
2022/09/16 05:11:47;;;;;;;5.50;0.52;;;10.20;99.90;;;;;;5010453;28;20042;-70
2022/09/16 05:14:15;;;;;;;7.80;1.20;;;10.10;99.90;;;;;;5006985;28;20057;-70
2022/09/16 05:16:41;;;;;;;6.50;0.52;;;10.10;99.90;;;;;;5015313;28;20141;-70
2022/09/16 05:19:09;;;;;;;7.82;0.73;;;10.00;99.90;;;;;;5007855;28;20085;-70
2022/09/16 05:21:36;;;;;;;5.28;0.57;;;9.90;99.90;;;;;;5009739;28;20076;-70
2022/09/16 05:24:06;;;;;;;5.55;1.05;;;9.90;99.90;;;;;;5003949;28;20056;-70
2022/09/16 05:26:34;;;;;;;5.70;1.00;;;9.80;99.90;;;;;;5001985;28;20096;-70
2022/09/16 05:29:09;;;;;;;3.53;0.35;;;9.80;99.90;;;;;;5003670;28;20091;-70
2022/09/16 05:31:37;;;;;;;6.55;0.80;;;9.70;99.90;;;;;;5003695;28;20076;-70
2022/09/16 05:34:06;;;;;;;9.77;1.15;;;9.70;99.90;;;;;;5007675;28;20421;-70
2022/09/16 05:36:36;;;;;;;11.80;1.20;;;9.70;99.90;;;;;;5011845;28;20507;-70
2022/09/16 05:39:02;;;;;;;11.30;0.77;;;9.60;99.90;;;;;;5016555;28;20034;-69
2022/09/16 05:41:28;;;;;;;7.57;0.90;;;9.60;99.90;;;;;;5002759;28;20058;-69
2022/09/16 05:43:58;;;;;;;8.82;1.08;;;9.50;99.90;;;;;;5004672;28;20057;-70
2022/09/16 05:46:24;;;;;;;6.45;0.82;;;9.60;99.90;;;;;;4999460;28;20430;-69
2022/09/16 05:48:50;;;;;;;4.65;0.82;;;9.60;99.90;;;;;;5000255;28;20050;-70
2022/09/16 05:51:18;;;;;;;8.43;0.80;;;9.60;99.90;;;;;;5007556;28;20046;-70
2022/09/16 05:53:45;;;;;;;9.52;0.77;;;9.70;99.90;;;;;;4997842;28;20506;-70
2022/09/16 05:56:17;;;;;;;12.30;1.02;;;9.80;99.90;;;;;;5001293;28;20045;-70
2022/09/16 05:58:43;;;;;;;5.82;0.93;;;9.90;99.90;;;;;;4997937;28;20112;-70
2022/09/16 06:01:17;;;;;;;7.72;1.10;;;10.10;99.90;;;;;;4998771;28;20421;-71
2022/09/16 06:03:45;;;;;;;6.25;0.70;;;10.20;99.90;;;;;;5004017;28;20057;-70
2022/09/16 06:06:24;;;;;;;11.02;1.10;;;10.30;99.90;;;;;;4984363;28;20072;-70
2022/09/16 06:08:50;;;;;;;7.63;0.82;;;10.40;99.90;;;;;;5004378;28;20152;-70
2022/09/16 06:11:18;;;;;;;12.65;1.70;;;10.50;99.90;;;;;;4997059;28;20434;-70
2022/09/16 06:13:44;;;;;;;6.40;0.98;;;10.60;99.90;;;;;;5003726;28;20151;-70
2022/09/16 06:16:10;;;;;;;8.65;0.93;;;10.70;99.90;;;;;;5015607;28;20123;-70
2022/09/16 06:18:36;;;;;;;6.60;0.82;;;10.90;99.90;;;;;;5000898;28;20038;-70
2022/09/16 06:21:09;;;;;;;13.88;0.95;;;10.90;99.90;;;;;;5000054;28;20050;-70
2022/09/16 06:23:36;;;;;;;9.15;0.90;;;11.00;99.90;;;;;;5003110;28;20088;-70
2022/09/16 06:26:05;;;;;;;10.52;1.38;;;11.10;99.90;;;;;;5007059;28;20076;-70
2022/09/16 06:28:31;;;;;;;8.48;1.23;;;11.10;99.90;;;;;;4987637;28;20537;-70
2022/09/16 06:31:01;;;;;;;7.82;0.80;;;11.10;99.90;;;;;;5009177;28;20133;-70
2022/09/16 06:33:27;;;;;;;9.95;0.80;;;11.10;99.90;;;;;;4985800;28;20123;-70
2022/09/16 06:35:53;;;;;;;5.47;0.80;;;11.20;99.90;;;;;;4987086;28;20081;-70
2022/09/16 06:38:19;;;;;;;10.77;0.90;;;11.20;99.90;;;;;;4995717;28;20101;-70
2022/09/16 06:40:44;;;;;;;9.18;1.00;;;11.20;99.90;;;;;;5006967;28;20053;-70
2022/09/16 06:43:10;;;;;;;9.52;1.10;;;11.40;99.90;;;;;;5004798;28;20061;-70
2022/09/16 06:45:35;;;;;;;15.30;1.30;;;11.40;99.90;;;;;;5005398;28;20451;-70
2022/09/16 06:48:01;;;;;;;11.05;1.08;;;11.50;99.90;;;;;;5005647;28;20077;-69
2022/09/16 06:50:27;;;;;;;12.07;1.17;;;11.70;99.90;;;;;;5001829;28;20438;-69
2022/09/16 06:52:52;;;;;;;6.50;0.90;;;11.80;99.90;;;;;;5004858;28;20048;-69
2022/09/16 06:55:18;;;;;;;8.82;0.65;;;11.90;99.90;;;;;;5005926;28;20050;-70
2022/09/16 06:57:44;;;;;;;8.25;0.85;;;12.00;99.90;;;;;;5001753;28;20061;-70
2022/09/16 07:00:11;;;;;;;8.38;1.05;;;12.10;99.90;;;;;;4993144;28;20169;-69
2022/09/16 07:02:37;;;;;;;6.43;0.68;;;12.20;99.90;;;;;;4997602;28;20133;-69
2022/09/16 07:05:03;;;;;;;8.80;1.10;;;12.40;99.90;;;;;;4990419;28;20153;-70
2022/09/16 07:07:30;;;;;;;7.30;1.10;;;12.60;99.90;;;;;;4986285;28;20085;-69
2022/09/16 07:09:56;;;;;;;10.63;0.82;;;12.70;99.90;;;;;;4999562;28;20058;-69
2022/09/16 07:12:21;;;;;;;11.30;1.20;;;12.70;99.90;;;;;;5007528;28;20081;-70
2022/09/16 07:14:47;;;;;;;10.27;1.30;;;12.90;99.90;;;;;;5004708;28;20061;-68
2022/09/16 07:17:13;;;;;;;9.65;1.10;;;13.10;99.90;;;;;;5001514;28;20062;-68
2022/09/16 07:19:41;;;;;;;13.32;1.40;;;13.20;99.90;;;;;;4984685;28;20545;-70
2022/09/16 07:22:06;;;;;;;6.85;0.90;;;13.30;99.90;;;;;;5005468;28;20069;-70
2022/09/16 07:24:32;;;;;;;11.48;1.52;;;13.40;99.90;;;;;;5001249;28;20054;-70
2022/09/16 07:26:58;;;;;;;8.73;0.95;;;13.60;99.90;;;;;;5000693;28;20080;-69
2022/09/16 07:29:24;;;;;;;9.35;1.15;;;13.80;99.90;;;;;;5000580;28;20491;-69
2022/09/16 07:31:49;;;;;;;11.60;1.50;;;14.00;99.90;;;;;;5004227;28;20149;-69
2022/09/16 07:34:15;;;;;;;8.68;1.00;;;14.20;99.90;;;;;;4999193;28;20041;-69
2022/09/16 07:36:44;;;;;;;12.45;1.33;;;14.40;99.90;;;;;;4987386;28;20040;-69
2022/09/16 07:39:12;;;;;;;6.32;0.82;;;14.70;99.90;;;;;;4997283;28;20054;-69
2022/09/16 07:41:40;;;;;;;8.63;1.10;;;14.90;99.90;;;;;;5001435;28;20477;-69
2022/09/16 07:44:08;;;;;;;7.45;0.90;;;15.20;99.90;;;;;;5001853;28;20061;-69
2022/09/16 07:46:35;;;;;;;11.05;1.15;;;15.40;99.90;;;;;;5003038;28;20106;-69
2022/09/16 07:49:04;;;;;;;5.85;1.05;;;15.50;99.90;;;;;;5005953;28;20082;-69
2022/09/16 07:51:30;;;;;;;9.68;1.13;;;15.80;99.90;;;;;;5002339;28;20061;-69
2022/09/16 07:53:59;;;;;;;12.38;0.88;;;16.00;99.90;;;;;;4997908;28;20061;-69
2022/09/16 07:56:27;;;;;;;7.78;1.20;;;16.00;99.90;;;;;;5001371;28;20120;-69
2022/09/16 07:58:54;;;;;;;11.65;1.75;;;16.10;99.90;;;;;;5001794;28;20137;-69
2022/09/16 08:01:20;;;;;;;7.50;1.08;;;16.30;99.90;;;;;;5006892;28;20664;-70
2022/09/16 08:03:46;;;;;;;7.47;1.00;;;16.60;99.90;;;;;;5001028;28;20057;-70
2022/09/16 08:06:15;;;;;;;7.65;1.40;;;17.30;99.90;;;;;;5003858;28;20128;-70
2022/09/16 08:08:41;;;;;;;7.03;0.88;;;18.00;99.90;;;;;;5003708;28;20075;-70
2022/09/16 08:11:08;;;;;;;8.82;1.10;;;18.70;99.90;;;;;;5000146;28;20046;-70
2022/09/16 08:13:35;;;;;;;6.80;1.27;;;19.60;99.90;;;;;;5000501;28;20070;-70
2022/09/16 08:16:04;;;;;;;10.25;1.40;;;20.20;99.90;;;;;;5003116;28;20038;-70
2022/09/16 08:18:30;;;;;;;6.22;1.00;;;20.70;99.90;;;;;;5000680;28;20183;-70
2022/09/16 08:20:56;;;;;;;5.35;0.88;;;21.20;99.90;;;;;;5003365;28;20053;-70
2022/09/16 08:23:22;;;;;;;6.60;1.15;;;21.40;98.60;;;;;;5001876;28;20053;-70
2022/09/16 08:25:58;;;;;;;7.80;1.30;;;21.60;96.80;;;;;;5001099;28;20050;-70
2022/09/16 08:28:24;;;;;;;9.55;0.88;;;21.80;91.60;;;;;;5004647;28;20061;-70
2022/09/16 08:30:50;;;;;;;6.97;1.15;;;21.90;92.50;;;;;;5004462;28;20395;-70
2022/09/16 08:33:19;;;;;;;5.88;0.98;;;22.00;90.80;;;;;;5002975;28;20041;-71
2022/09/16 08:35:46;;;;;;;7.60;0.95;;;21.90;91.10;;;;;;5018762;28;20049;-69
2022/09/16 08:38:12;;;;;;;5.60;1.40;;;22.00;90.60;;;;;;5002816;28;20391;-69
2022/09/16 08:40:43;;;;;;;7.60;1.40;;;22.00;85.80;;;;;;5006591;28;20073;-69
2022/09/16 08:43:20;;;;;;;7.93;1.30;;;21.60;85.00;;;;;;4998553;28;20054;-69
2022/09/16 08:46:13;;;;;;;8.55;1.17;;;21.00;83.70;;;;;;4989669;28;20486;-69
2022/09/16 08:49:11;;;;;;;9.23;1.65;;;19.70;79.10;;;;;;5003689;28;20489;-69
2022/09/16 08:51:37;;;;;;;10.98;1.30;;;18.80;85.60;;;;;;4968817;28;20058;-69
2022/09/16 08:54:11;;;;;;;9.25;1.55;;;18.10;91.00;;;;;;4989826;28;20045;-69
2022/09/16 08:56:38;;;;;;;9.02;1.80;;;17.50;90.20;;;;;;5004535;28;20061;-70
2022/09/16 08:59:12;;;;;;;7.45;1.40;;;17.40;92.30;;;;;;4997025;28;20068;-70
2022/09/16 09:01:40;;;;;;;;;;;18.10;91.70;;;;;;5001983;28;20500;-70
2022/09/16 09:04:06;;;;;;;11.68;1.52;;;18.80;88.00;;;;;;4985929;28;19917;-70
2022/09/16 09:06:35;;;;;;;7.78;1.15;;;18.70;91.10;;;;;;5000297;28;20034;-70
2022/09/16 09:09:19;;;;;;;9.30;1.35;;;18.20;86.10;;;;;;5000642;28;20038;-70
2022/09/16 09:11:59;;;;;;;8.90;1.47;;;17.80;85.90;;;;;;4999917;28;20384;-70
2022/09/16 09:14:33;;;;;;;9.95;1.38;;;18.60;83.40;;;;;;4998977;28;20050;-70
2022/09/16 09:17:21;;;;;;;7.82;1.30;;;19.50;85.40;;;;;;5003586;28;20520;-70
2022/09/16 09:20:06;;;;;;;9.05;1.48;;;20.50;77.40;;;;;;4998297;28;20038;-71
2022/09/16 09:23:05;;;;;;;8.60;1.48;;;20.70;70.40;;;;;;4999794;28;20121;-71
2022/09/16 09:25:53;;;;;;;10.25;1.70;;;21.10;71.50;;;;;;5006110;28;20104;-71
2022/09/16 09:28:28;;;;;;;8.68;1.92;;;21.10;67.50;;;;;;5004126;28;20084;-71
2022/09/16 09:31:07;;;;;;;8.93;1.30;;;21.10;68.70;;;;;;5004460;28;20054;-71
2022/09/16 09:33:36;;;;;;;8.63;1.63;;;21.60;69.90;;;;;;5000212;28;20057;-71
2022/09/16 09:36:13;;;;;;;6.03;1.00;;;21.90;67.10;;;;;;4999640;28;20410;-71
2022/09/16 09:39:03;;;;;;;9.93;1.30;;;22.20;65.00;;;;;;4997585;28;20482;-70
2022/09/16 09:41:38;;;;;;;5.15;1.40;;;22.10;59.90;;;;;;5009555;28;20038;-71
2022/09/16 09:44:41;;;;;;;7.63;1.40;;;22.10;61.20;;;;;;5004937;28;20058;-71
2022/09/16 09:47:18;;;;;;;6.18;0.80;;;22.40;58.90;;;;;;5000156;28;20054;-71
2022/09/16 09:49:55;;;;;;;7.25;1.00;;;22.20;57.70;;;;;;5002621;28;20489;-71
2022/09/16 09:52:34;;;;;;;6.10;1.25;;;22.20;56.70;;;;;;5018557;28;20037;-70
2022/09/16 09:55:17;;;;;;;8.80;1.33;;;22.20;58.30;;;;;;5000488;28;20116;-71
2022/09/16 09:58:01;;;;;;;6.93;1.20;;;22.60;59.70;;;;;;5003284;28;20069;-71
2022/09/16 10:00:33;;;;;;;8.23;1.50;;;22.90;57.50;;;;;;5002274;28;20045;-71
2022/09/16 10:03:21;;;;;;;8.63;1.48;;;23.10;57.80;;;;;;5002565;28;20050;-70
2022/09/16 10:05:51;;;;;;;6.93;1.25;;;23.40;55.10;;;;;;5007259;28;20192;-71
2022/09/16 10:08:35;;;;;;;4.68;0.82;;;23.00;55.60;;;;;;4998616;28;20129;-71
2022/09/16 10:11:16;;;;;;;7.90;1.10;;;22.40;55.10;;;;;;5001380;28;20040;-70
2022/09/16 10:13:51;;;;;;;9.75;1.20;;;21.90;56.90;;;;;;5000973;28;20046;-70
2022/09/16 10:16:24;;;;;;;7.75;1.02;;;21.30;57.90;;;;;;5002524;28;20057;-70
2022/09/16 10:19:07;;;;;;;5.47;1.20;;;20.40;57.70;;;;;;4984847;28;20064;-70
2022/09/16 10:22:01;;;;;;;4.95;0.65;;;19.60;60.20;;;;;;4984524;28;20043;-70
2022/09/16 10:24:30;;;;;;;6.27;1.47;;;18.90;62.30;;;;;;4946891;28;20132;-69
2022/09/16 10:26:57;;;;;;;7.05;1.15;;;18.10;72.70;;;;;;5003906;28;20329;-68
2022/09/16 10:29:27;;;;;;;7.70;1.30;;;17.30;77.50;;;;;;5004743;28;20493;-68
2022/09/16 10:32:04;;;;;;;7.57;1.17;;;16.90;84.00;;;;;;5002853;28;20358;-68
2022/09/16 10:34:37;;;;;;;7.97;1.17;;;17.40;88.90;;;;;;5003529;28;20406;-68
2022/09/16 10:37:17;;;;;;;9.30;1.58;;;18.10;87.20;;;;;;4999102;28;20324;-68
2022/09/16 10:39:55;;;;;;;9.38;1.20;;;18.70;82.10;;;;;;5004805;28;20058;-69
2022/09/16 10:42:24;;;;;;;8.50;1.30;;;19.20;78.40;;;;;;5001857;28;20053;-68
2022/09/16 10:44:53;;;;;;;7.82;1.45;;;19.50;77.50;;;;;;4999273;28;20104;-69
2022/09/16 10:47:23;;;;;;;9.95;1.60;;;19.80;76.70;;;;;;5007032;28;20100;-68
2022/09/16 10:49:56;;;;;;;10.15;1.63;;;19.90;74.70;;;;;;5001146;28;20137;-69
2022/09/16 10:52:29;;;;;;;6.80;1.20;;;20.10;72.50;;;;;;5002389;28;20125;-69
2022/09/16 10:55:21;;;;;;;7.65;1.40;;;20.20;69.90;;;;;;5000143;28;20045;-69
2022/09/16 10:57:52;;;;;;;5.10;1.08;;;20.50;70.20;;;;;;5004435;28;20466;-69
2022/09/16 11:00:30;;;;;;;8.73;1.43;;;20.60;67.50;;;;;;4999925;28;20553;-69
2022/09/16 11:03:33;;;;;;;6.50;0.88;;;20.70;66.40;;;;;;4998822;28;20883;-68
2022/09/16 11:06:23;;;;;;;5.57;1.05;;;20.90;65.50;;;;;;4999061;28;20053;-68
2022/09/16 11:09:09;;;;;;;4.85;0.85;;;21.00;64.40;;;;;;4999232;28;20159;-68
2022/09/16 11:11:56;;;;;;;7.88;0.90;;;20.90;61.50;;;;;;5005028;28;20077;-69
2022/09/16 11:14:48;;;;;;;6.93;1.45;;;20.60;63.30;;;;;;5002253;28;20049;-68
2022/09/16 11:17:47;;;;;;;4.03;1.00;;;20.60;62.50;;;;;;4998643;28;20053;-68
2022/09/16 11:20:44;;;;;;;8.75;1.20;;;20.80;63.60;;;;;;5003409;28;20065;-68
2022/09/16 11:23:22;;;;;;;6.35;0.85;;;20.50;62.70;;;;;;4995902;28;20042;-68
2022/09/16 11:26:18;;;;;;;9.10;1.58;;;20.70;62.50;;;;;;4984678;28;20184;-68
2022/09/16 11:28:57;;;;;;;7.78;1.00;;;20.60;61.60;;;;;;4994552;28;20050;-68
2022/09/16 11:31:48;;;;;;;5.53;0.77;;;20.20;61.70;;;;;;5003200;28;20042;-69
2022/09/16 11:34:32;;;;;;;8.15;1.25;;;19.50;60.60;;;;;;5000986;28;20070;-67
2022/09/16 11:37:24;;;;;;;7.40;1.08;;;18.90;63.90;;;;;;5001698;28;20096;-67
2022/09/16 11:40:17;;;;;;;7.72;1.35;;;18.40;66.10;;;;;;5002299;28;20076;-67
2022/09/16 11:42:54;;;;;;;6.38;1.20;;;18.50;67.60;;;;;;5001777;28;20046;-67
2022/09/16 11:45:42;;;;;;;7.22;0.80;;;18.30;69.10;;;;;;5005080;28;20053;-68
2022/09/16 11:48:38;;;;;;;5.90;0.90;;;19.20;68.10;;;;;;4995836;28;20069;-68
2022/09/16 11:51:28;;;;;;;13.35;1.88;;;20.10;66.40;;;;;;4986693;28;20164;-68
2022/09/16 11:54:01;;;;;;;6.50;1.33;;;19.90;66.60;;;;;;4997569;28;20059;-68
2022/09/16 11:56:46;;;;;;;7.30;1.35;;;19.20;68.50;;;;;;5004683;28;20375;-68
2022/09/16 11:59:14;;;;;;;7.37;1.33;;;19.00;69.70;;;;;;4999509;28;20048;-68
2022/09/16 12:01:49;;;;;;;8.35;1.35;;;20.00;67.10;;;;;;5007268;28;20041;-69
2022/09/16 12:04:34;;;;;;;8.25;1.40;;;20.90;63.50;;;;;;5001503;28;20041;-68
2022/09/16 12:07:12;;;;;;;5.30;1.10;;;21.60;60.30;;;;;;5004232;28;20046;-69
2022/09/16 12:09:40;;;;;;;6.40;1.00;;;22.00;59.20;;;;;;4997932;28;20045;-69
2022/09/16 12:12:16;;;;;;;7.13;0.85;;;22.30;58.90;;;;;;5002201;28;20057;-69
2022/09/16 12:14:48;;;;;;;7.03;1.20;;;22.50;57.10;;;;;;4996143;28;20128;-69
2022/09/16 12:17:25;;;;;;;6.63;1.08;;;22.60;58.70;;;;;;5001985;28;20063;-68
2022/09/16 12:20:14;;;;;;;4.72;0.70;;;21.10;65.60;;;;;;4988262;28;20100;-68
2022/09/16 12:23:24;;;;;;;4.15;0.77;;;19.20;70.30;;;;;;5005460;28;20124;-67
2022/09/16 12:26:02;;;;;;;7.90;0.80;;;17.60;76.70;;;;;;4986232;28;20046;-67
2022/09/16 12:28:43;;;;;;;6.70;0.80;;;16.40;81.40;;;;;;5003431;28;20096;-67
2022/09/16 12:31:38;;;;;;;4.78;0.80;;;15.90;88.20;;;;;;4998944;28;20040;-67
2022/09/16 12:34:12;;;;;;;5.43;0.73;;;15.60;91.70;;;;;;4989525;28;20054;-68
2022/09/16 12:36:43;;;;;;;6.82;0.70;;;16.00;95.10;;;;;;5001740;28;20057;-68
2022/09/16 12:39:11;;;;;;;6.90;0.90;;;17.50;95.00;;;;;;5001323;28;20056;-68
2022/09/16 12:42:01;;;;;;;4.45;0.90;;;19.00;91.90;;;;;;5001671;28;20850;-68
2022/09/16 12:45:05;;;;;;;6.15;1.00;;;20.20;89.80;;;;;;5003035;28;20606;-68
2022/09/16 12:47:56;;;;;;;6.82;1.20;;;21.40;85.30;;;;;;5003305;28;20037;-68
2022/09/16 12:50:47;;;;;;;11.30;1.30;;;22.10;78.70;;;;;;5003685;28;20100;-68
2022/09/16 12:53:55;;;;;;;9.40;1.23;;;22.40;74.90;;;;;;5003997;28;20069;-68
2022/09/16 12:56:37;;;;;;;6.32;1.30;;;22.40;71.20;;;;;;5001405;28;20549;-67
2022/09/16 12:59:37;;;;;;;9.65;1.48;;;20.70;68.70;;;;;;5002546;28;20096;-68
2022/09/16 13:02:18;;;;;;;8.75;1.17;;;19.40;70.90;;;;;;4997601;28;20034;-68
2022/09/16 13:04:50;;;;;;;7.55;1.35;;;18.50;73.40;;;;;;5002192;28;20050;-68
2022/09/16 13:07:32;;;;;;;6.57;1.20;;;18.70;76.20;;;;;;5002385;28;20052;-68
2022/09/16 13:10:04;;;;;;;7.10;1.20;;;19.40;77.00;;;;;;4997462;28;20444;-69
2022/09/16 13:12:31;;;;;;;7.97;1.20;;;19.90;72.40;;;;;;5004009;28;20081;-68
2022/09/16 13:15:03;;;;;;;6.85;1.40;;;20.30;71.80;;;;;;5003308;28;20049;-68
2022/09/16 13:17:35;;;;;;;8.15;1.02;;;20.40;70.10;;;;;;5006524;28;20599;-69
2022/09/16 13:20:16;;;;;;;9.35;1.20;;;20.20;71.70;;;;;;5002360;28;20038;-69